Terminal Aerodrome Forecast
Issued by NWS Portland, OR

Home | Current Version | Previous Version | Text Only | Print | Product List | Glossary On
Versions: 1 2 3 4 5 6 7 8 9 10 11 12 13 14 15
000
FTUS46 KPQR 202334
TAFHIO
TAF
KHIO 202334Z 2100/2124 18005KT P6SM VCSH SCT025 OVC050
     FM210500 VRB03KT P6SM SCT025 BKN050
     FM211300 07004KT 4SM -RA BR OVC019
     FM211700 34004KT 2SM -RA BR OVC009
     FM212000 30008KT 4SM -RA HZ OVC015=

USA.gov is the U.S. government's official web portal to all federal, state and local government web resources and services.